Eagar, Arizona
Current Conditions -  °F | °C
As of 3:15 AM on Wednesday 26 Nov 2014 (Local Time) from KJTC Reporting Station
Clear Clear  
Wind Chill: 16°   Ceiling: Unl
Heat Index: 25°   Visibility: 10mi
Dew Point: 10°   Wind: 8mph
Humidity: 54%   Direction: 200°SSW
Pressure: 30.44"   Gusts: NA
Location:  34.11°N, 109.29°W
Report Text: KJTC 261015Z AUTO 20007KT 10SM CLR M04/M12 A3044 RMK AO2
Loading
Personal Weather Stations






























Interactive Weather Map New forecast layout! Learn more

10-Day Weather Forecast

Advertisements
Track Severe Weather on mobile